tititudorancea.com
Station Historical Data
Daily Summary for January 12, 2019 Units:  English    Metric   Both
« Previous Day
Next Day »
Daily Weekly Monthly Yearly Custom
  High: Low: Average:
Temperature: TemperatureF °F 55.5 °F 69.6 °F
Dew Point: DewpointF °F 40.9 °F 48.1 °F
Humidity: Humidity % 33 % 48 %
Wind Speed: WindSpeedMPH mph 0.0 mph 11 mph
Wind Gust: WindSpeedGustMPH mph - -
Wind:- - South
Pressure: PressureIn in 29.81 in -
Precipitation: 0.00 in    
Historical Graphs
 
 
Ararat weather Find more about Weather in Ararat, AU


 



 


Tabular Data for January 12, 2019
Time Temperature Dew Point Pressure Wind Wind Speed Wind Gust Humidity Rainfall Rate (Hourly)
TemperatureF °F DewpointF °F PressureIn in Calm     Humidity % HourlyPrecipIn in
00:04 69.7 °F 44.9 °F 29.83 in SSW 2.0 mph 0.4 mph 41 % 0.00 in
00:09 69.5 °F 44.8 °F 29.83 in SSW 3.5 mph 2.1 mph 41 % 0.00 in
00:14 69.6 °F 44.2 °F 29.83 in SSW 3.5 mph 1.7 mph 40 % 0.00 in
00:19 69.9 °F 43.8 °F 29.82 in SSW 1.0 mph 0.6 mph 39 % 0.00 in
00:24 70.1 °F 44.0 °F 29.82 in SSW 2.3 mph 0.3 mph 39 % 0.00 in
00:29 70.0 °F 43.9 °F 29.83 in SSW 2.3 mph 1.6 mph 39 % 0.00 in
00:34 69.6 °F 44.2 °F 29.83 in SSW 1.0 mph   40 % 0.00 in
00:39 69.1 °F 44.4 °F 29.83 in SSW 2.3 mph 0.9 mph 41 % 0.00 in
00:44 68.6 °F 44.6 °F 29.83 in Calm     42 % 0.00 in
00:49 68.4 °F 44.4 °F 29.83 in Calm     42 % 0.00 in
00:54 68.0 °F 44.7 °F 29.82 in SSW 2.3 mph 1.4 mph 43 % 0.00 in
00:59 67.5 °F 44.8 °F 29.82 in Calm     44 % 0.00 in
01:04 67.1 °F 45.0 °F 29.82 in SSW 3.5 mph 0.4 mph 45 % 0.00 in
01:09 66.8 °F 45.3 °F 29.82 in SSW 4.0 mph 2.9 mph 46 % 0.00 in
01:14 66.5 °F 45.1 °F 29.82 in SSW 2.3 mph 0.6 mph 46 % 0.00 in
01:19 66.4 °F 45.0 °F 29.82 in North 1.2 mph   46 % 0.00 in
01:24 66.1 °F 45.3 °F 29.82 in SSW 1.0 mph 0.2 mph 47 % 0.00 in
01:29 65.7 °F 45.5 °F 29.82 in Calm     48 % 0.00 in
01:34 65.5 °F 45.3 °F 29.82 in Calm     48 % 0.00 in
01:39 65.1 °F 45.5 °F 29.82 in SSW 1.0 mph 0.3 mph 49 % 0.00 in
01:44 64.7 °F 45.6 °F 29.82 in Calm     50 % 0.00 in
01:49 64.4 °F 45.3 °F 29.82 in Calm     50 % 0.00 in
01:54 64.0 °F 45.5 °F 29.82 in Calm     51 % 0.00 in
01:59 63.5 °F 45.6 °F 29.82 in Calm     52 % 0.00 in
02:04 63.2 °F 45.8 °F 29.82 in Calm     53 % 0.00 in
02:09 62.9 °F 46.0 °F 29.82 in Calm     54 % 0.00 in
02:14 62.6 °F 46.2 °F 29.82 in Calm     55 % 0.00 in
02:19 62.4 °F 46.0 °F 29.82 in Calm     55 % 0.00 in
02:24 62.3 °F 46.4 °F 29.82 in Calm     56 % 0.00 in
02:29 62.3 °F 46.4 °F 29.82 in Calm     56 % 0.00 in
02:34 62.3 °F 46.4 °F 29.82 in Calm     56 % 0.00 in
02:39 62.3 °F 46.4 °F 29.82 in Calm     56 % 0.00 in
02:44 62.4 °F 46.0 °F 29.82 in Calm     55 % 0.00 in
02:49 62.5 °F 46.6 °F 29.82 in Calm     56 % 0.00 in
02:54 62.6 °F 46.7 °F 29.81 in Calm     56 % 0.00 in
02:59 62.6 °F 46.7 °F 29.81 in Calm     56 % 0.00 in
03:04 62.6 °F 47.1 °F 29.81 in Calm     57 % 0.00 in
03:09 62.6 °F 47.1 °F 29.81 in Calm     57 % 0.00 in
03:14 62.6 °F 47.1 °F 29.81 in Calm     57 % 0.00 in
03:19 62.5 °F 48.0 °F 29.81 in Calm     59 % 0.00 in
03:24 62.4 °F 47.0 °F 29.81 in Calm     57 % 0.00 in
03:29 62.4 °F 47.0 °F 29.81 in Calm     57 % 0.00 in
03:34 62.2 °F 47.2 °F 29.81 in Calm     58 % 0.00 in
03:39 62.1 °F 47.6 °F 29.81 in SSW 3.5 mph 2.0 mph 59 % 0.00 in
03:44 62.0 °F 47.5 °F 29.82 in SSW 1.2 mph   59 % 0.00 in
03:49 61.9 °F 47.4 °F 29.81 in Calm     59 % 0.00 in
03:54 61.7 °F 47.2 °F 29.81 in Calm     59 % 0.00 in
03:59 61.5 °F 47.5 °F 29.81 in Calm     60 % 0.00 in
04:04 61.1 °F 47.1 °F 29.81 in Calm     60 % 0.00 in
04:09 60.8 °F 47.3 °F 29.82 in Calm     61 % 0.00 in
04:14 60.8 °F 47.3 °F 29.82 in SSW 3.5 mph 1.4 mph 61 % 0.00 in
04:19 61.2 °F 47.6 °F 29.82 in Calm     61 % 0.00 in
04:24 61.5 °F 47.5 °F 29.82 in Calm     60 % 0.00 in
04:29 61.6 °F 47.6 °F 29.83 in SSW 3.5 mph 1.6 mph 60 % 0.00 in
04:34 61.8 °F 47.8 °F 29.83 in Calm     60 % 0.00 in
04:39 61.8 °F 47.3 °F 29.83 in Calm     59 % 0.00 in
04:44 61.8 °F 47.8 °F 29.83 in Calm     60 % 0.00 in
04:49 61.7 °F 47.2 °F 29.84 in Calm     59 % 0.00 in
04:54 61.7 °F 47.2 °F 29.84 in Calm     59 % 0.00 in
04:59 61.5 °F 47.5 °F 29.84 in Calm     60 % 0.00 in
05:04 61.3 °F 47.3 °F 29.84 in Calm     60 % 0.00 in
05:09 61.1 °F 47.5 °F 29.84 in Calm     61 % 0.00 in
05:14 61.1 °F 48.0 °F 29.86 in Calm     62 % 0.00 in
05:19 60.9 °F 47.8 °F 29.85 in Calm     62 % 0.00 in
05:24 61.2 °F 47.6 °F 29.86 in SSW 2.3 mph 1.0 mph 61 % 0.00 in
05:29 61.2 °F 47.6 °F 29.86 in Calm     61 % 0.00 in
05:34 60.9 °F 47.4 °F 29.86 in Calm     61 % 0.00 in
05:39 60.8 °F 47.7 °F 29.87 in Calm     62 % 0.00 in
05:44 60.6 °F 47.5 °F 29.87 in Calm     62 % 0.00 in
05:49 60.4 °F 47.3 °F 29.87 in Calm     62 % 0.00 in
05:54 60.2 °F 47.6 °F 29.87 in Calm     63 % 0.00 in
05:59 59.9 °F 47.3 °F 29.88 in SSW 3.5 mph 2.3 mph 63 % 0.00 in
06:04 59.9 °F 47.3 °F 29.89 in SSW 1.2 mph   63 % 0.00 in
06:09 59.8 °F 46.7 °F 29.89 in SSW 2.3 mph 2.1 mph 62 % 0.00 in
06:14 59.7 °F 47.1 °F 29.89 in SSW 2.3 mph 1.5 mph 63 % 0.00 in
06:19 59.6 °F 47.0 °F 29.89 in SSW 1.2 mph 0.1 mph 63 % 0.00 in
06:24 59.5 °F 46.9 °F 29.89 in SSW 3.5 mph 1.2 mph 63 % 0.00 in
06:29 59.4 °F 46.4 °F 29.90 in SSW 2.3 mph 1.9 mph 62 % 0.00 in
06:34 59.3 °F 46.3 °F 29.90 in SSW 2.3 mph 1.6 mph 62 % 0.00 in
06:39 59.4 °F 45.9 °F 29.90 in SSW 2.3 mph 0.2 mph 61 % 0.00 in
06:44 59.4 °F 45.9 °F 29.91 in SSW 2.3 mph 0.3 mph 61 % 0.00 in
06:49 59.5 °F 46.0 °F 29.91 in SSW 3.5 mph 2.5 mph 61 % 0.00 in
06:54 59.8 °F 46.7 °F 29.91 in SSW 3.5 mph 1.5 mph 62 % 0.00 in
06:59 60.1 °F 46.6 °F 29.91 in SSW 2.3 mph 2.6 mph 61 % 0.00 in
07:04 60.4 °F 47.3 °F 29.91 in SSW 2.3 mph 1.1 mph 62 % 0.00 in
07:09 60.8 °F 47.7 °F 29.92 in SSW 4.0 mph 2.6 mph 62 % 0.00 in
07:14 61.3 °F 48.2 °F 29.91 in SSW 3.5 mph 0.4 mph 62 % 0.00 in
07:19 61.8 °F 48.6 °F 29.92 in SSW 2.3 mph 1.6 mph 62 % 0.00 in
07:24 62.5 °F 48.9 °F 29.92 in SSW 3.5 mph 2.0 mph 61 % 0.00 in
07:29 63.1 °F 49.0 °F 29.92 in SSW 2.3 mph 0.5 mph 60 % 0.00 in
07:34 63.6 °F 49.5 °F 29.92 in SSW 3.5 mph 2.1 mph 60 % 0.00 in
07:39 63.9 °F 49.7 °F 29.92 in SSW 3.5 mph 2.2 mph 60 % 0.00 in
07:44 64.2 °F 50.0 °F 29.92 in SSW 1.2 mph 0.1 mph 60 % 0.00 in
07:49 64.5 °F 49.8 °F 29.92 in SSW 3.5 mph 1.8 mph 59 % 0.00 in
07:54 64.7 °F 49.6 °F 29.92 in SSW 4.6 mph 1.4 mph 58 % 0.00 in
07:59 65.1 °F 50.0 °F 29.93 in SSW 3.5 mph 2.6 mph 58 % 0.00 in
08:04 65.4 °F 50.2 °F 29.93 in SSW 2.3 mph 3.4 mph 58 % 0.00 in
08:09 65.8 °F 50.6 °F 29.93 in SSW 3.5 mph 3.0 mph 58 % 0.00 in
08:14 66.2 °F 50.5 °F 29.93 in SSW 6.9 mph 4.2 mph 57 % 0.00 in
08:19 66.5 °F 50.8 °F 29.93 in South 8.1 mph 4.7 mph 57 % 0.00 in
08:24 66.7 °F 50.5 °F 29.93 in South 9.2 mph 6.9 mph 56 % 0.00 in
08:29 66.9 °F 51.2 °F 29.93 in South 8.1 mph 5.9 mph 57 % 0.00 in
08:34 67.1 °F 50.9 °F 29.93 in South 6.9 mph 4.3 mph 56 % 0.00 in
08:39 67.5 °F 51.2 °F 29.93 in South 10.4 mph 5.5 mph 56 % 0.00 in
08:42 67.8 °F 51.5 °F 29.93 in SSW 8.1 mph 6.0 mph 56 % 0.00 in
09:44 72.0 °F 51.8 °F 29.94 in South 11.5 mph 7.2 mph 49 % 0.00 in
09:49 72.3 °F 52.1 °F 29.94 in SSE 13.0 mph 7.8 mph 49 % 0.00 in
09:54 72.4 °F 52.2 °F 29.94 in South 11.5 mph 6.6 mph 49 % 0.00 in
09:59 72.3 °F 52.6 °F 29.94 in South 9.2 mph 5.6 mph 50 % 0.00 in
10:04 72.9 °F 52.6 °F 29.94 in South 10.4 mph 5.9 mph 49 % 0.00 in
10:09 73.3 °F 53.0 °F 29.94 in South 11.5 mph 6.5 mph 49 % 0.00 in
10:14 73.7 °F 52.8 °F 29.94 in South 10.4 mph 6.2 mph 48 % 0.00 in
10:19 73.7 °F 53.3 °F 29.94 in South 9.2 mph 7.5 mph 49 % 0.00 in
10:24 74.3 °F 54.5 °F 29.94 in South 11.5 mph 9.2 mph 50 % 0.00 in
10:29 74.6 °F 53.6 °F 29.94 in South 11.5 mph 6.6 mph 48 % 0.00 in
10:34 74.6 °F 52.4 °F 29.94 in South 9.2 mph 5.9 mph 46 % 0.00 in
10:39 74.5 °F 52.4 °F 29.94 in South 11.5 mph 9.4 mph 46 % 0.00 in
10:44 74.9 °F 52.7 °F 29.93 in South 11.5 mph 7.6 mph 46 % 0.00 in
10:49 75.2 °F 53.0 °F 29.93 in SE 18.4 mph 8.7 mph 46 % 0.00 in
10:54 76.1 °F 53.2 °F 29.93 in South 11.5 mph 8.0 mph 45 % 0.00 in
10:59 76.1 °F 53.2 °F 29.93 in South 13.8 mph 8.2 mph 45 % 0.00 in
11:04 76.2 °F 52.1 °F 29.93 in SSE 9.2 mph 7.5 mph 43 % 0.00 in
11:09 77.2 °F 54.2 °F 29.93 in SSE 9.2 mph 6.7 mph 45 % 0.00 in
11:14 78.2 °F 53.9 °F 29.92 in South 9.2 mph 8.3 mph 43 % 0.00 in
11:19 79.0 °F 53.3 °F 29.92 in SSE 13.8 mph 9.1 mph 41 % 0.00 in
11:24 78.9 °F 53.2 °F 29.92 in SE 11.0 mph 8.9 mph 41 % 0.00 in
11:29 79.4 °F 54.3 °F 29.92 in South 10.4 mph 4.8 mph 42 % 0.00 in
11:34 79.7 °F 52.5 °F 29.93 in South 15.0 mph 10.2 mph 39 % 0.00 in
11:39 79.2 °F 51.4 °F 29.93 in SSE 15.0 mph 8.3 mph 38 % 0.00 in
11:44 79.4 °F 53.0 °F 29.93 in South 11.5 mph 7.5 mph 40 % 0.00 in
11:49 79.4 °F 53.0 °F 29.92 in SE 19.0 mph 12.5 mph 40 % 0.00 in
11:54 80.2 °F 54.4 °F 29.92 in South 12.0 mph 6.3 mph 41 % 0.00 in
11:59 80.3 °F 53.1 °F 29.92 in SSE 11.5 mph 8.2 mph 39 % 0.00 in
12:04 80.3 °F 54.5 °F 29.92 in SSE 13.8 mph 8.6 mph 41 % 0.00 in
12:09 80.3 °F 53.8 °F 29.92 in SSW 10.4 mph 9.2 mph 40 % 0.00 in
12:14 80.1 °F 53.6 °F 29.93 in SSE 17.3 mph 11.7 mph 40 % 0.00 in
12:19 80.4 °F 54.5 °F 29.93 in South 13.8 mph 8.3 mph 41 % 0.00 in
12:24 80.6 °F 54.0 °F 29.93 in South 11.5 mph 8.2 mph 40 % 0.00 in
12:29 81.4 °F 54.1 °F 29.92 in SSE 11.5 mph 8.5 mph 39 % 0.00 in
12:34 82.4 °F 53.5 °F 29.93 in South 11.5 mph 8.0 mph 37 % 0.00 in
12:39 81.8 °F 53.7 °F 29.92 in SE 19.6 mph 11.5 mph 38 % 0.00 in
12:44 81.7 °F 52.9 °F 29.92 in South 12.0 mph 7.4 mph 37 % 0.00 in
12:49 82.4 °F 52.8 °F 29.92 in SSW 18.4 mph 10.2 mph 36 % 0.00 in
12:54 82.4 °F 52.8 °F 29.92 in SSW 16.1 mph 8.6 mph 36 % 0.00 in
12:59 82.5 °F 52.1 °F 29.92 in South 11.5 mph 9.5 mph 35 % 0.00 in
13:04 82.8 °F 51.6 °F 29.92 in SSW 16.0 mph 10.6 mph 34 % 0.00 in
13:09 82.8 °F 51.6 °F 29.92 in SW 12.7 mph 7.3 mph 34 % 0.00 in
13:14 82.7 °F 50.7 °F 29.92 in SSE 13.8 mph 7.7 mph 33 % 0.00 in
13:19 83.0 °F 51.7 °F 29.92 in South 12.0 mph 9.0 mph 34 % 0.00 in
13:24 83.5 °F 51.4 °F 29.92 in SSW 11.5 mph 10.8 mph 33 % 0.00 in
13:29 83.8 °F 52.4 °F 29.91 in SSE 8.1 mph 7.1 mph 34 % 0.00 in
13:34 84.2 °F 52.8 °F 29.91 in SSW 15.0 mph 10.6 mph 34 % 0.00 in
13:39 83.5 °F 51.4 °F 29.91 in South 12.7 mph 7.0 mph 33 % 0.00 in
13:44 83.6 °F 52.3 °F 29.91 in SSW 12.7 mph 10.3 mph 34 % 0.00 in
13:49 83.4 °F 52.1 °F 29.91 in SSW 12.7 mph 7.9 mph 34 % 0.00 in
13:54 83.6 °F 52.3 °F 29.91 in SSW 17.0 mph 11.7 mph 34 % 0.00 in
13:59 83.7 °F 52.3 °F 29.91 in South 18.4 mph 14.6 mph 34 % 0.00 in
14:04 84.0 °F 51.8 °F 29.91 in SSW 17.0 mph 10.6 mph 33 % 0.00 in
14:09 84.1 °F 52.7 °F 29.91 in SW 15.0 mph 12.1 mph 34 % 0.00 in
14:14 84.0 °F 53.4 °F 29.91 in South 13.8 mph 7.7 mph 35 % 0.00 in
14:19 84.4 °F 53.8 °F 29.91 in SSE 13.8 mph 10.9 mph 35 % 0.00 in
14:24 84.5 °F 53.0 °F 29.91 in SW 19.6 mph 11.0 mph 34 % 0.00 in
14:29 84.2 °F 53.6 °F 29.91 in South 16.1 mph 9.5 mph 35 % 0.00 in
14:34 84.2 °F 53.6 °F 29.91 in South 13.8 mph 10.2 mph 35 % 0.00 in
14:39 84.6 °F 53.1 °F 29.91 in South 14.0 mph 10.4 mph 34 % 0.00 in
14:44 84.2 °F 53.6 °F 29.91 in South 16.1 mph 10.4 mph 35 % 0.00 in
14:49 84.0 °F 53.4 °F 29.91 in South 16.0 mph 10.1 mph 35 % 0.00 in
14:54 84.0 °F 53.4 °F 29.91 in SSW 15.0 mph 13.0 mph 35 % 0.00 in
14:59 84.4 °F 53.8 °F 29.91 in South 18.4 mph 5.5 mph 35 % 0.00 in
15:04 84.5 °F 53.8 °F 29.92 in SSW 16.1 mph 6.6 mph 35 % 0.00 in
15:09 84.4 °F 53.8 °F 29.91 in South 17.3 mph 9.3 mph 35 % 0.00 in
15:14 85.0 °F 53.5 °F 29.92 in SSE 13.8 mph 9.3 mph 34 % 0.00 in
15:19 85.1 °F 53.6 °F 29.92 in South 16.1 mph 9.4 mph 34 % 0.00 in
15:24 84.1 °F 53.5 °F 29.92 in SSW 19.6 mph 12.0 mph 35 % 0.00 in
15:29 83.6 °F 53.1 °F 29.92 in South 17.3 mph 11.7 mph 35 % 0.00 in
15:34 83.4 °F 52.9 °F 29.92 in SSW 24.2 mph 11.2 mph 35 % 0.00 in
15:39 82.9 °F 52.4 °F 29.92 in SSW 18.4 mph 13.9 mph 35 % 0.00 in
15:44 83.2 °F 52.7 °F 29.93 in SSW 21.9 mph 14.7 mph 35 % 0.00 in
15:49 83.2 °F 52.7 °F 29.93 in South 20.7 mph 10.7 mph 35 % 0.00 in
15:54 83.0 °F 52.5 °F 29.93 in SSW 11.5 mph 9.1 mph 35 % 0.00 in
15:59 82.2 °F 52.6 °F 29.93 in SSW 21.9 mph 16.4 mph 36 % 0.00 in
16:04 81.4 °F 51.9 °F 29.93 in South 28.8 mph 13.1 mph 36 % 0.00 in
16:09 81.7 °F 52.1 °F 29.94 in SW 19.6 mph 15.2 mph 36 % 0.00 in
16:14 81.5 °F 51.2 °F 29.93 in SSE 23.0 mph 15.6 mph 35 % 0.00 in
16:19 81.0 °F 51.5 °F 29.94 in SSE 19.0 mph 15.9 mph 36 % 0.00 in
16:24 80.6 °F 51.2 °F 29.94 in SSW 26.5 mph 18.0 mph 36 % 0.00 in
16:29 80.1 °F 50.7 °F 29.94 in SSW 23.0 mph 13.8 mph 36 % 0.00 in
16:34 80.3 °F 50.9 °F 29.94 in SSW 19.6 mph 14.0 mph 36 % 0.00 in
16:39 80.2 °F 50.8 °F 29.94 in SE 21.9 mph 10.9 mph 36 % 0.00 in
16:44 80.4 °F 50.2 °F 29.94 in South 16.1 mph 16.3 mph 35 % 0.00 in
16:49 79.6 °F 49.5 °F 29.94 in South 18.4 mph 7.8 mph 35 % 0.00 in
16:54 79.5 °F 50.2 °F 29.95 in South 19.0 mph 11.9 mph 36 % 0.00 in
16:59 79.2 °F 49.2 °F 29.94 in South 22.0 mph 11.6 mph 35 % 0.00 in
17:04 78.9 °F 48.1 °F 29.95 in SSW 24.2 mph 12.3 mph 34 % 0.00 in
17:09 78.9 °F 48.1 °F 29.95 in SE 17.3 mph 12.5 mph 34 % 0.00 in
17:14 78.5 °F 47.0 °F 29.95 in SSW 26.5 mph 14.4 mph 33 % 0.00 in
17:19 78.0 °F 46.6 °F 29.95 in South 24.2 mph 14.7 mph 33 % 0.00 in
17:24 77.9 °F 46.5 °F 29.96 in South 26.5 mph 16.7 mph 33 % 0.00 in
17:29 77.9 °F 46.5 °F 29.96 in South 18.4 mph 14.9 mph 33 % 0.00 in
17:34 77.1 °F 46.6 °F 29.96 in South 20.7 mph 12.0 mph 34 % 0.00 in
17:39 77.0 °F 46.5 °F 29.96 in South 23.0 mph 12.9 mph 34 % 0.00 in
17:44 76.8 °F 46.3 °F 29.96 in SSE 19.6 mph 11.6 mph 34 % 0.00 in
17:49 77.2 °F 46.7 °F 29.96 in SSW 23.0 mph 13.3 mph 34 % 0.00 in
17:54 76.4 °F 45.9 °F 29.96 in SSW 25.3 mph 17.4 mph 34 % 0.00 in
17:59 75.9 °F 46.3 °F 29.97 in South 16.1 mph 12.7 mph 35 % 0.00 in
18:04 75.4 °F 45.1 °F 29.97 in South 20.7 mph 11.1 mph 34 % 0.00 in
18:09 75.2 °F 45.7 °F 29.97 in South 17.3 mph 10.4 mph 35 % 0.00 in
18:14 74.8 °F 45.3 °F 29.97 in SSE 24.2 mph 16.1 mph 35 % 0.00 in
18:19 74.7 °F 45.2 °F 29.98 in South 24.2 mph 13.5 mph 35 % 0.00 in
18:24 74.6 °F 45.1 °F 29.98 in South 19.6 mph 12.0 mph 35 % 0.00 in
18:29 74.8 °F 45.3 °F 29.98 in SSE 17.3 mph 8.7 mph 35 % 0.00 in
18:34 74.5 °F 44.3 °F 29.98 in SSE 25.3 mph 9.7 mph 34 % 0.00 in
18:39 74.0 °F 43.8 °F 29.98 in SSE 26.5 mph 17.6 mph 34 % 0.00 in
18:44 73.6 °F 44.2 °F 29.98 in North 19.6 mph 12.3 mph 35 % 0.00 in
18:49 73.9 °F 44.5 °F 29.98 in SSW 11.5 mph 8.6 mph 35 % 0.00 in
18:54 73.4 °F 43.3 °F 29.98 in South 24.2 mph 15.2 mph 34 % 0.00 in
18:59 73.2 °F 43.1 °F 29.98 in SSW 20.0 mph 14.6 mph 34 % 0.00 in
19:04 73.1 °F 43.8 °F 29.99 in SSW 17.3 mph 12.7 mph 35 % 0.00 in
19:09 72.3 °F 43.8 °F 29.99 in SSW 27.0 mph 16.7 mph 36 % 0.00 in
19:14 72.0 °F 43.6 °F 29.99 in South 21.9 mph 12.3 mph 36 % 0.00 in
19:19 71.9 °F 44.2 °F 29.99 in SSE 24.2 mph 11.8 mph 37 % 0.00 in
19:24 71.6 °F 43.2 °F 30.00 in South 20.7 mph 12.7 mph 36 % 0.00 in
19:29 71.4 °F 43.8 °F 30.00 in SSE 18.4 mph 12.8 mph 37 % 0.00 in
19:34 71.2 °F 42.9 °F 30.00 in South 21.0 mph 14.3 mph 36 % 0.00 in
19:39 70.9 °F 43.3 °F 30.00 in South 24.2 mph 13.6 mph 37 % 0.00 in
19:44 70.4 °F 43.6 °F 30.01 in SSE 20.7 mph 12.3 mph 38 % 0.00 in
19:49 70.2 °F 42.7 °F 30.01 in South 18.4 mph 13.7 mph 37 % 0.00 in
19:54 70.0 °F 42.5 °F 30.01 in South 21.0 mph 10.2 mph 37 % 0.00 in
19:59 69.7 °F 42.3 °F 30.01 in South 19.6 mph 10.9 mph 37 % 0.00 in
20:04 69.4 °F 42.7 °F 30.02 in South 21.0 mph 14.9 mph 38 % 0.00 in
20:09 69.0 °F 42.3 °F 30.02 in SSW 23.0 mph 16.6 mph 38 % 0.00 in
20:14 68.6 °F 41.3 °F 30.02 in South 18.4 mph 13.0 mph 37 % 0.00 in
20:19 68.3 °F 41.0 °F 30.03 in South 23.0 mph 13.7 mph 37 % 0.00 in
20:24 67.9 °F 41.3 °F 30.02 in South 15.0 mph 5.8 mph 38 % 0.00 in
20:29 67.4 °F 40.9 °F 30.03 in South 21.9 mph 13.2 mph 38 % 0.00 in
20:34 67.1 °F 42.0 °F 30.03 in South 16.1 mph 7.4 mph 40 % 0.00 in
20:39 66.6 °F 42.2 °F 30.03 in South 17.3 mph 8.8 mph 41 % 0.00 in
20:44 66.1 °F 42.9 °F 30.04 in SSW 19.6 mph 9.8 mph 43 % 0.00 in
20:49 65.7 °F 43.8 °F 30.04 in South 18.0 mph 9.1 mph 45 % 0.00 in
20:54 65.3 °F 43.4 °F 30.04 in South 15.0 mph 12.4 mph 45 % 0.00 in
20:59 64.9 °F 43.6 °F 30.04 in South 13.8 mph 9.7 mph 46 % 0.00 in
21:04 64.5 °F 44.4 °F 30.04 in South 17.3 mph 12.8 mph 48 % 0.00 in
21:09 64.1 °F 44.5 °F 30.04 in South 15.0 mph 10.6 mph 49 % 0.00 in
21:14 63.7 °F 44.2 °F 30.04 in SSE 19.6 mph 10.3 mph 49 % 0.00 in
21:19 63.3 °F 44.9 °F 30.04 in South 19.6 mph 11.8 mph 51 % 0.00 in
21:24 62.9 °F 45.0 °F 30.05 in SSE 19.6 mph 12.1 mph 52 % 0.00 in
21:29 62.5 °F 45.6 °F 30.05 in South 20.7 mph 9.9 mph 54 % 0.00 in
21:34 62.2 °F 45.8 °F 30.06 in South 16.0 mph 11.6 mph 55 % 0.00 in
21:39 61.9 °F 45.5 °F 30.06 in South 17.3 mph 9.8 mph 55 % 0.00 in
21:44 61.6 °F 45.3 °F 30.06 in SSW 15.0 mph 6.3 mph 55 % 0.00 in
21:49 61.3 °F 45.5 °F 30.06 in South 13.0 mph 10.0 mph 56 % 0.00 in
21:54 61.0 °F 45.2 °F 30.06 in South 12.0 mph 8.7 mph 56 % 0.00 in
21:59 60.6 °F 45.3 °F 30.06 in South 18.0 mph 11.3 mph 57 % 0.00 in
22:04 60.3 °F 45.5 °F 30.06 in South 11.5 mph 7.8 mph 58 % 0.00 in
22:09 60.1 °F 45.7 °F 30.06 in South 16.1 mph 10.7 mph 59 % 0.00 in
22:14 59.7 °F 45.8 °F 30.06 in South 13.8 mph 9.5 mph 60 % 0.00 in
22:19 59.5 °F 46.0 °F 30.07 in SSE 13.8 mph 10.0 mph 61 % 0.00 in
22:24 59.2 °F 46.2 °F 30.07 in South 11.5 mph 6.6 mph 62 % 0.00 in
22:29 59.0 °F 46.4 °F 30.07 in SSE 18.4 mph 9.4 mph 63 % 0.00 in
22:34 58.8 °F 46.6 °F 30.07 in South 16.0 mph 8.6 mph 64 % 0.00 in
22:39 58.6 °F 46.5 °F 30.07 in SSE 12.7 mph 8.8 mph 64 % 0.00 in
22:44 58.4 °F 46.7 °F 30.07 in South 12.7 mph 7.3 mph 65 % 0.00 in
22:49 58.1 °F 46.8 °F 30.07 in South 13.8 mph 10.8 mph 66 % 0.00 in
22:54 57.9 °F 47.0 °F 30.07 in North 18.4 mph 11.0 mph 67 % 0.00 in
22:59 57.7 °F 47.2 °F 30.07 in SSE 19.0 mph 10.8 mph 68 % 0.00 in
23:03 57.5 °F 47.4 °F 30.07 in South 16.1 mph 11.1 mph 69 % 0.00 in
23:09 57.3 °F 47.6 °F 30.07 in South 19.6 mph 10.9 mph 70 % 0.00 in
23:14 57.1 °F 47.8 °F 30.07 in South 18.4 mph 11.1 mph 71 % 0.00 in
23:19 56.9 °F 48.0 °F 30.08 in South 12.7 mph 6.2 mph 72 % 0.00 in
23:24 56.7 °F 48.1 °F 30.08 in SSE 13.8 mph 8.6 mph 73 % 0.00 in
23:29 56.5 °F 47.9 °F 30.08 in South 13.8 mph 11.2 mph 73 % 0.00 in
23:34 56.3 °F 48.1 °F 30.08 in South 15.0 mph 11.8 mph 74 % 0.00 in
23:39 56.2 °F 48.4 °F 30.08 in North 15.0 mph 7.3 mph 75 % 0.00 in
23:44 56.0 °F 48.2 °F 30.08 in North 12.7 mph 10.2 mph 75 % 0.00 in
23:49 55.8 °F 48.3 °F 30.08 in SSE 17.3 mph 7.3 mph 76 % 0.00 in
23:54 55.6 °F 48.2 °F 30.07 in North 15.0 mph 8.4 mph 76 % 0.00 in
23:59 55.5 °F 48.4 °F 30.07 in SSE 15.0 mph 8.8 mph 77 % 0.00 in
Ararat Weather
Compliments of Weather Underground - 2.25 mb
Click here to send mail.


ABOUT

Live weather data from Ararat, Victoria, Australia, 3377
Data uploaded from Cumulus every 5 minutes to Weather Underground.
This site then downloads the raw data for formatting and display.
Metric and imperial data can be displayed. Graphs and historical data available.
Includes Sun and Moon times and rain image live from BOM.

Check out Ararat Weather on Facebook, Twitter and Google +

Help support ongoing costs by checking out the ads





Follow @AraratWeather